Time;durP1;ratioP1;P1;durP2;ratioP2;P2;SDS_P1;SDS_P2;PMS_P1;PMS_P2;Temp;Humidity;BMP_temperature;BMP_pressure;BME280_temperature;BME280_humidity;BME280_pressure;Samples;Min_cycle;Max_cycle;Signal;HPM_P1;HPM_P2
2023/11/25 00:00:41;;;;;;;0.30;0.30;;;1.70;99.90;;;;;;5056972;28;20437;-79
2023/11/25 00:03:08;;;;;;;0.30;0.20;;;1.80;99.90;;;;;;5057390;28;20505;-79
2023/11/25 00:05:34;;;;;;;0.30;0.20;;;1.70;99.90;;;;;;5058952;28;20456;-79
2023/11/25 00:08:01;;;;;;;0.30;0.30;;;1.70;99.90;;;;;;5057026;28;20492;-79
2023/11/25 00:10:29;;;;;;;0.30;0.30;;;1.70;99.90;;;;;;5057192;28;20450;-78
2023/11/25 00:12:56;;;;;;;0.30;0.30;;;1.70;99.90;;;;;;5055578;28;20441;-79
2023/11/25 00:15:23;;;;;;;0.30;0.30;;;1.70;99.90;;;;;;5056063;28;20496;-79
2023/11/25 00:17:50;;;;;;;0.30;0.30;;;1.70;99.90;;;;;;5057152;28;20434;-79
2023/11/25 00:20:17;;;;;;;0.67;0.30;;;1.70;99.90;;;;;;5056911;28;20461;-79
2023/11/25 00:22:44;;;;;;;0.30;0.30;;;1.80;99.90;;;;;;5055521;28;20450;-79
2023/11/25 00:25:10;;;;;;;0.30;0.20;;;1.80;99.90;;;;;;5055651;28;20446;-79
2023/11/25 00:27:38;;;;;;;0.80;0.50;;;1.80;99.90;;;;;;5056952;28;20485;-79
2023/11/25 00:30:07;;;;;;;0.40;0.40;;;1.80;99.90;;;;;;5057746;28;20453;-79
2023/11/25 00:32:37;;;;;;;0.30;0.30;;;1.80;99.90;;;;;;5057786;28;20602;-79
2023/11/25 00:35:05;;;;;;;0.30;0.20;;;1.80;99.90;;;;;;5056127;28;20433;-79
2023/11/25 00:37:31;;;;;;;0.30;0.30;;;1.80;99.90;;;;;;5056497;28;20533;-79
2023/11/25 00:39:59;;;;;;;0.30;0.20;;;1.90;99.90;;;;;;5056668;28;20438;-79
2023/11/25 00:42:25;;;;;;;0.30;0.20;;;1.90;99.90;;;;;;5056006;28;20723;-79
2023/11/25 00:44:54;;;;;;;0.30;0.30;;;1.90;99.90;;;;;;5055685;28;20457;-79
2023/11/25 00:47:22;;;;;;;0.33;0.30;;;1.90;99.90;;;;;;5055393;28;20474;-79
2023/11/25 00:49:49;;;;;;;0.30;0.30;;;1.90;99.90;;;;;;5055193;28;20453;-79
2023/11/25 00:52:17;;;;;;;0.30;0.30;;;2.00;99.90;;;;;;5054511;28;20465;-78
2023/11/25 00:54:44;;;;;;;0.30;0.30;;;2.00;99.90;;;;;;5054430;28;20480;-78
2023/11/25 00:57:11;;;;;;;0.40;0.40;;;2.00;99.90;;;;;;5054841;28;20836;-79
2023/11/25 00:59:38;;;;;;;0.50;0.40;;;1.90;99.90;;;;;;5057120;28;20445;-79
2023/11/25 01:02:06;;;;;;;1.53;0.40;;;1.90;99.90;;;;;;5058038;28;20462;-79
2023/11/25 01:04:33;;;;;;;0.30;0.20;;;1.90;99.90;;;;;;5058586;28;20446;-79
2023/11/25 01:07:00;;;;;;;0.90;0.40;;;1.90;99.90;;;;;;5058762;28;20488;-79
2023/11/25 01:09:30;;;;;;;2.40;0.57;;;1.90;99.90;;;;;;5059150;28;20539;-79
2023/11/25 01:11:57;;;;;;;0.30;0.20;;;2.00;99.90;;;;;;5058823;28;20480;-78
2023/11/25 01:14:24;;;;;;;0.30;0.20;;;2.00;99.90;;;;;;5058533;28;20430;-79
2023/11/25 01:16:51;;;;;;;0.30;0.30;;;2.00;99.90;;;;;;5059179;28;20434;-79
2023/11/25 01:19:19;;;;;;;0.30;0.30;;;1.90;99.90;;;;;;5059177;28;20452;-79
2023/11/25 01:21:46;;;;;;;0.30;0.20;;;1.90;99.90;;;;;;5059025;28;20469;-79
2023/11/25 01:24:13;;;;;;;0.30;0.20;;;1.90;99.90;;;;;;5059152;28;20524;-78
2023/11/25 01:26:40;;;;;;;0.47;0.47;;;1.90;99.90;;;;;;5067737;22;20486;-78
2023/11/25 01:29:08;;;;;;;0.30;0.30;;;2.00;99.90;;;;;;5038257;28;20437;-78
2023/11/25 01:31:34;;;;;;;0.30;0.20;;;1.90;99.90;;;;;;5040448;28;20462;-79
2023/11/25 01:34:01;;;;;;;0.60;0.33;;;1.90;99.90;;;;;;5038528;28;20431;-79
2023/11/25 01:36:29;;;;;;;0.30;0.20;;;1.90;99.90;;;;;;5038469;28;20459;-79
2023/11/25 01:38:56;;;;;;;0.60;0.30;;;1.90;99.90;;;;;;5038619;28;20437;-79
2023/11/25 01:41:23;;;;;;;0.60;0.30;;;1.90;99.90;;;;;;5039109;28;20447;-79
2023/11/25 01:43:49;;;;;;;0.30;0.30;;;1.80;99.90;;;;;;5038157;28;20985;-79
2023/11/25 01:46:27;;;;;;;0.30;0.20;;;1.70;99.90;;;;;;5037925;28;20901;-79
2023/11/25 01:48:54;;;;;;;0.83;0.83;;;1.70;99.90;;;;;;5038670;28;20415;-79
2023/11/25 01:51:21;;;;;;;0.30;0.20;;;1.70;99.90;;;;;;5038169;28;20439;-79
2023/11/25 01:53:49;;;;;;;0.87;0.40;;;1.70;99.90;;;;;;5038054;28;20450;-78
2023/11/25 01:56:16;;;;;;;0.30;0.30;;;1.60;99.90;;;;;;5037611;28;20455;-78
2023/11/25 01:58:42;;;;;;;0.30;0.30;;;1.60;99.90;;;;;;5037947;28;20545;-78
2023/11/25 02:01:10;;;;;;;0.40;0.30;;;1.60;99.90;;;;;;5037281;28;20943;-78
2023/11/25 02:03:37;;;;;;;0.30;0.30;;;1.50;99.90;;;;;;5037528;28;20445;-78
2023/11/25 02:06:04;;;;;;;0.60;0.60;;;1.50;99.90;;;;;;5037474;28;20510;-78
2023/11/25 02:08:30;;;;;;;0.30;0.20;;;1.50;99.90;;;;;;5037563;28;20478;-78
2023/11/25 02:11:00;;;;;;;0.30;0.20;;;1.50;99.90;;;;;;5037278;28;20457;-79
2023/11/25 02:13:27;;;;;;;0.30;0.20;;;1.60;99.90;;;;;;5037642;28;20509;-79
2023/11/25 02:15:55;;;;;;;3.03;0.97;;;1.60;99.90;;;;;;5037170;28;20883;-79
2023/11/25 02:18:22;;;;;;;0.40;0.30;;;1.60;99.90;;;;;;5036746;28;20457;-79
2023/11/25 02:20:49;;;;;;;0.40;0.30;;;1.60;99.90;;;;;;5037823;28;20455;-79
2023/11/25 02:23:22;;;;;;;0.53;0.40;;;1.60;99.90;;;;;;5036704;28;20443;-79
2023/11/25 02:25:50;;;;;;;0.40;0.40;;;1.60;99.90;;;;;;5036556;28;20493;-78
2023/11/25 02:28:17;;;;;;;0.40;0.40;;;1.60;99.90;;;;;;5035585;28;20565;-78
2023/11/25 02:30:44;;;;;;;0.30;0.30;;;1.60;99.90;;;;;;5035655;28;20460;-78
2023/11/25 02:33:11;;;;;;;0.30;0.20;;;1.60;99.90;;;;;;5035545;28;20473;-78
2023/11/25 02:35:39;;;;;;;0.30;0.30;;;1.60;99.90;;;;;;5035447;28;20505;-78
2023/11/25 02:38:06;;;;;;;0.50;0.50;;;1.60;99.90;;;;;;5035268;28;20443;-79
2023/11/25 02:40:34;;;;;;;0.83;0.40;;;1.50;99.90;;;;;;5035585;28;20446;-79
2023/11/25 02:43:00;;;;;;;0.30;0.30;;;1.50;99.90;;;;;;5035331;28;20517;-79
2023/11/25 02:45:27;;;;;;;0.30;0.30;;;1.50;99.90;;;;;;5035078;28;20868;-79
2023/11/25 02:47:54;;;;;;;0.30;0.30;;;1.50;99.90;;;;;;5035131;28;20508;-79
2023/11/25 02:50:21;;;;;;;0.30;0.30;;;1.60;99.90;;;;;;5035133;28;20450;-79
2023/11/25 02:52:48;;;;;;;0.40;0.40;;;1.60;99.90;;;;;;5035114;28;20450;-79
2023/11/25 02:55:15;;;;;;;0.30;0.20;;;1.60;99.90;;;;;;5035123;28;20470;-79
2023/11/25 02:57:45;;;;;;;0.37;0.37;;;1.60;99.90;;;;;;5036207;28;20434;-80
2023/11/25 03:00:27;;;;;;;0.60;0.30;;;1.70;99.90;;;;;;5036687;28;20939;-79
2023/11/25 03:03:00;;;;;;;0.50;0.50;;;1.70;99.90;;;;;;5035796;28;20518;-79
2023/11/25 03:05:27;;;;;;;0.30;0.30;;;1.60;99.90;;;;;;5036414;28;20844;-78
2023/11/25 03:07:56;;;;;;;0.40;0.40;;;1.70;99.90;;;;;;5036129;28;20561;-78
2023/11/25 03:10:23;;;;;;;0.30;0.20;;;1.70;99.90;;;;;;5036047;28;20425;-79
2023/11/25 03:12:51;;;;;;;0.30;0.30;;;1.70;99.90;;;;;;5035493;28;20446;-79
2023/11/25 03:15:18;;;;;;;5.33;0.53;;;1.70;99.90;;;;;;5035714;28;20467;-79
2023/11/25 03:17:46;;;;;;;0.40;0.40;;;1.70;99.90;;;;;;5035612;28;20447;-79
2023/11/25 03:20:12;;;;;;;0.30;0.30;;;1.80;99.90;;;;;;5035852;28;20447;-79
2023/11/25 03:22:39;;;;;;;0.40;0.30;;;1.70;99.90;;;;;;5035116;28;20969;-79
2023/11/25 03:25:07;;;;;;;0.30;0.20;;;1.70;99.90;;;;;;5035695;28;20442;-79
2023/11/25 03:27:35;;;;;;;0.40;0.30;;;1.70;99.90;;;;;;5035404;28;20474;-79
2023/11/25 03:30:06;;;;;;;0.30;0.30;;;1.80;99.90;;;;;;5035604;28;20459;-79
2023/11/25 03:32:34;;;;;;;0.30;0.30;;;1.80;99.90;;;;;;5035909;28;20522;-79
2023/11/25 03:35:01;;;;;;;0.50;0.30;;;1.80;99.90;;;;;;5035815;28;20443;-79
2023/11/25 03:37:29;;;;;;;0.40;0.40;;;1.70;99.90;;;;;;5035615;28;20450;-79
2023/11/25 03:39:56;;;;;;;0.40;0.33;;;1.70;99.90;;;;;;5035031;28;20477;-79
2023/11/25 03:42:23;;;;;;;3.07;0.90;;;1.70;99.90;;;;;;5035737;28;20819;-79
2023/11/25 03:44:50;;;;;;;0.30;0.30;;;1.60;99.90;;;;;;5036219;28;20451;-78
2023/11/25 03:47:18;;;;;;;0.30;0.30;;;1.60;99.90;;;;;;5035194;28;20845;-79
2023/11/25 03:49:45;;;;;;;0.30;0.30;;;1.60;99.90;;;;;;5035435;28;20447;-79
2023/11/25 03:52:12;;;;;;;0.40;0.40;;;1.70;99.90;;;;;;5035569;28;20442;-78
2023/11/25 03:54:39;;;;;;;0.80;0.40;;;1.60;99.90;;;;;;5035455;28;20476;-78
2023/11/25 03:57:06;;;;;;;0.60;0.60;;;1.60;99.90;;;;;;5035085;28;20994;-78
2023/11/25 03:59:33;;;;;;;0.37;0.27;;;1.60;99.90;;;;;;5035651;28;20500;-78
2023/11/25 04:02:00;;;;;;;0.30;0.30;;;1.60;99.90;;;;;;5035735;28;20442;-79
2023/11/25 04:04:28;;;;;;;0.40;0.37;;;1.70;99.90;;;;;;5035771;28;20446;-78
2023/11/25 04:06:54;;;;;;;0.30;0.20;;;1.60;99.90;;;;;;5036673;28;20466;-78
2023/11/25 04:09:21;;;;;;;0.30;0.30;;;1.50;99.90;;;;;;5036093;28;20431;-78
2023/11/25 04:11:48;;;;;;;0.40;0.40;;;1.40;99.90;;;;;;5035396;28;20455;-79
2023/11/25 04:14:16;;;;;;;0.30;0.30;;;1.40;99.90;;;;;;5034520;28;20447;-78
2023/11/25 04:16:43;;;;;;;0.30;0.20;;;1.30;99.90;;;;;;5035263;28;20538;-78
2023/11/25 04:19:10;;;;;;;0.40;0.30;;;1.30;99.90;;;;;;5034511;28;20446;-78
2023/11/25 04:21:40;;;;;;;0.70;0.70;;;1.30;99.90;;;;;;5034424;28;20455;-78
2023/11/25 04:24:10;;;;;;;3.50;1.57;;;1.30;99.90;;;;;;5033598;28;20997;-78
2023/11/25 04:26:37;;;;;;;0.30;0.20;;;1.20;99.90;;;;;;5033249;28;20584;-78
2023/11/25 04:29:04;;;;;;;0.40;0.30;;;1.20;99.90;;;;;;5033641;28;20482;-80
2023/11/25 04:31:32;;;;;;;0.30;0.20;;;1.20;99.90;;;;;;5033669;28;20431;-79
2023/11/25 04:33:58;;;;;;;0.40;0.30;;;1.10;99.90;;;;;;5034963;28;20450;-79
2023/11/25 04:36:25;;;;;;;0.67;0.67;;;1.10;99.90;;;;;;5037545;28;20469;-79
2023/11/25 04:38:56;;;;;;;0.30;0.30;;;1.10;99.90;;;;;;5037399;28;20442;-79
2023/11/25 04:41:23;;;;;;;0.30;0.30;;;1.10;99.90;;;;;;5038074;28;20459;-79
2023/11/25 04:43:50;;;;;;;0.30;0.30;;;1.10;99.90;;;;;;5038716;28;20446;-78
2023/11/25 04:46:17;;;;;;;1.30;0.40;;;1.00;99.90;;;;;;5037294;28;20538;-79
2023/11/25 04:48:43;;;;;;;0.30;0.20;;;1.00;99.90;;;;;;5037144;28;20489;-79
2023/11/25 04:51:10;;;;;;;5.87;0.43;;;1.00;99.90;;;;;;5038695;28;20450;-79
2023/11/25 04:53:37;;;;;;;0.30;0.30;;;0.90;99.90;;;;;;5038010;28;20449;-79
2023/11/25 04:56:06;;;;;;;0.30;0.30;;;0.90;99.90;;;;;;5038051;28;20463;-79
2023/11/25 04:58:32;;;;;;;0.90;0.60;;;0.90;99.90;;;;;;5038120;28;20446;-79
2023/11/25 05:00:59;;;;;;;0.70;0.70;;;0.90;99.90;;;;;;5038173;28;20435;-79
2023/11/25 05:03:26;;;;;;;0.50;0.37;;;0.90;99.90;;;;;;5038226;28;20474;-80
2023/11/25 05:05:53;;;;;;;0.30;0.30;;;0.90;99.90;;;;;;5038198;28;20891;-80
2023/11/25 05:08:20;;;;;;;2.47;0.43;;;1.00;99.90;;;;;;5038277;28;20479;-80
2023/11/25 05:10:48;;;;;;;0.30;0.30;;;1.00;99.90;;;;;;5039996;28;20438;-80
2023/11/25 05:13:16;;;;;;;1.03;0.50;;;1.00;99.90;;;;;;5044849;28;20481;-78
2023/11/25 05:15:43;;;;;;;0.40;0.40;;;1.00;99.90;;;;;;5044744;28;20545;-79
2023/11/25 05:18:10;;;;;;;0.30;0.30;;;1.10;99.90;;;;;;5040137;28;20442;-79
2023/11/25 05:20:38;;;;;;;0.30;0.20;;;1.10;99.90;;;;;;5041052;28;20442;-78
2023/11/25 05:23:04;;;;;;;0.40;0.40;;;1.10;99.90;;;;;;5043035;28;20447;-78
2023/11/25 05:25:32;;;;;;;0.60;0.40;;;1.10;99.90;;;;;;5042503;28;20481;-79
2023/11/25 05:27:59;;;;;;;0.30;0.30;;;1.10;99.90;;;;;;5041802;28;20481;-79
2023/11/25 05:30:27;;;;;;;14.00;0.67;;;1.20;99.90;;;;;;5039311;28;20461;-79
2023/11/25 05:32:53;;;;;;;8.43;0.73;;;1.20;99.90;;;;;;5038281;28;20447;-80
2023/11/25 05:35:20;;;;;;;0.30;0.20;;;1.20;99.90;;;;;;5038090;28;20477;-81
2023/11/25 05:37:48;;;;;;;0.30;0.20;;;1.20;99.90;;;;;;5037463;28;20943;-81
2023/11/25 05:40:15;;;;;;;0.30;0.20;;;1.20;99.90;;;;;;5038748;28;20958;-80
2023/11/25 05:42:47;;;;;;;0.30;0.30;;;1.20;99.90;;;;;;5037874;28;20543;-79
2023/11/25 05:45:14;;;;;;;0.30;0.30;;;1.20;99.90;;;;;;5037516;28;20494;-79
2023/11/25 05:47:42;;;;;;;0.30;0.30;;;1.20;99.90;;;;;;5039149;28;20486;-79
2023/11/25 05:50:09;;;;;;;0.30;0.30;;;1.20;99.90;;;;;;5039091;28;20451;-79
2023/11/25 05:52:36;;;;;;;0.30;0.20;;;1.10;99.90;;;;;;5039757;28;20951;-79
2023/11/25 05:55:03;;;;;;;0.30;0.30;;;1.10;99.90;;;;;;5039373;28;20446;-79
2023/11/25 05:57:30;;;;;;;4.97;1.07;;;1.10;99.90;;;;;;5039535;28;20446;-79
2023/11/25 05:59:56;;;;;;;0.30;0.30;;;1.00;99.90;;;;;;5039659;28;20454;-79
2023/11/25 06:02:23;;;;;;;0.30;0.20;;;1.00;99.90;;;;;;5039639;28;20966;-79
2023/11/25 06:04:51;;;;;;;0.30;0.30;;;1.00;99.90;;;;;;5041139;28;20453;-79
2023/11/25 06:07:18;;;;;;;0.40;0.30;;;0.90;99.90;;;;;;5040902;28;20457;-80
2023/11/25 06:09:45;;;;;;;0.50;0.33;;;0.90;99.90;;;;;;5042633;28;20492;-80
2023/11/25 06:12:13;;;;;;;0.30;0.20;;;0.90;99.90;;;;;;5042906;28;20970;-80
2023/11/25 06:14:40;;;;;;;0.30;0.23;;;0.90;99.90;;;;;;5043748;28;20447;-80
2023/11/25 06:17:07;;;;;;;0.30;0.20;;;0.90;99.90;;;;;;5044482;28;20466;-80
2023/11/25 06:19:34;;;;;;;0.30;0.30;;;0.90;99.90;;;;;;5044607;28;20443;-79
2023/11/25 06:22:04;;;;;;;0.40;0.40;;;1.80;99.90;;;;;;5044640;28;20476;-79
2023/11/25 06:24:31;;;;;;;0.30;0.30;;;;;;;;;;5044908;28;20443;-79
2023/11/25 06:26:58;;;;;;;0.30;0.30;;;1.10;99.90;;;;;;5043511;28;20486;-79
2023/11/25 06:29:24;;;;;;;0.30;0.20;;;1.20;99.90;;;;;;5044441;28;20577;-79
2023/11/25 06:31:51;;;;;;;0.37;0.37;;;1.20;99.90;;;;;;5044402;28;20446;-79
2023/11/25 06:34:18;;;;;;;0.70;0.40;;;1.30;99.90;;;;;;5044325;28;20441;-80
2023/11/25 06:36:46;;;;;;;0.30;0.20;;;1.30;99.90;;;;;;5045672;28;20525;-81
2023/11/25 06:39:16;;;;;;;0.40;0.30;;;1.40;99.90;;;;;;5044839;28;20469;-79
2023/11/25 06:41:48;;;;;;;0.30;0.20;;;1.40;99.90;;;;;;5045449;28;20864;-80
2023/11/25 06:44:16;;;;;;;0.30;0.30;;;1.50;99.90;;;;;;5044048;28;20455;-80
2023/11/25 06:46:43;;;;;;;7.10;1.03;;;1.50;99.90;;;;;;5046174;28;20459;-80
2023/11/25 06:49:12;;;;;;;0.40;0.40;;;1.60;99.90;;;;;;5046202;28;20487;-81
2023/11/25 06:51:40;;;;;;;0.30;0.30;;;1.60;99.90;;;;;;5046482;28;20451;-80
2023/11/25 06:54:08;;;;;;;3.70;0.63;;;1.60;99.90;;;;;;5046462;28;20447;-80
2023/11/25 06:56:38;;;;;;;0.40;0.37;;;1.60;99.90;;;;;;5046129;28;20483;-81
2023/11/25 06:59:05;;;;;;;0.63;0.30;;;1.60;99.90;;;;;;5045839;28;20530;-81
2023/11/25 07:01:32;;;;;;;0.30;0.20;;;1.60;99.90;;;;;;5046971;28;20509;-79
2023/11/25 07:03:59;;;;;;;0.30;0.30;;;1.50;99.90;;;;;;5048013;28;20514;-79
2023/11/25 07:06:26;;;;;;;0.30;0.30;;;1.50;99.90;;;;;;5046481;28;20991;-79
2023/11/25 07:08:54;;;;;;;0.30;0.20;;;3.50;99.90;;;;;;5045741;28;20544;-80
2023/11/25 07:11:23;;;;;;;0.30;0.20;;;1.50;99.90;;;;;;5046139;28;20443;-81
2023/11/25 07:13:53;;;;;;;0.67;0.30;;;1.60;99.90;;;;;;5045791;28;20466;-80
2023/11/25 07:16:21;;;;;;;0.40;0.40;;;1.60;99.90;;;;;;5046097;28;20483;-80
2023/11/25 07:18:49;;;;;;;0.50;0.30;;;2.00;99.90;;;;;;5045902;28;20461;-79
2023/11/25 07:21:16;;;;;;;0.30;0.30;;;1.60;99.90;;;;;;5047965;28;20463;-79
2023/11/25 07:23:43;;;;;;;0.30;0.30;;;1.80;99.90;;;;;;5045927;28;20518;-80
2023/11/25 07:26:11;;;;;;;0.30;0.30;;;1.80;99.90;;;;;;5091459;22;20491;-79
2023/11/25 07:28:38;;;;;;;0.30;0.20;;;1.80;99.90;;;;;;5036224;28;20569;-78
2023/11/25 07:31:09;;;;;;;0.40;0.30;;;1.70;99.90;;;;;;5036705;28;20443;-78
2023/11/25 07:33:36;;;;;;;0.40;0.30;;;1.80;99.90;;;;;;5036215;28;20442;-78
2023/11/25 07:36:02;;;;;;;1.03;0.40;;;1.80;99.90;;;;;;5036084;28;20458;-80
2023/11/25 07:38:29;;;;;;;0.80;0.50;;;1.90;99.90;;;;;;5037608;28;20469;-78
2023/11/25 07:40:56;;;;;;;0.30;0.30;;;1.80;99.90;;;;;;5036358;28;20415;-78
2023/11/25 07:43:24;;;;;;;0.33;0.33;;;1.80;99.90;;;;;;5036678;28;20843;-78
2023/11/25 07:45:51;;;;;;;0.40;0.40;;;1.90;99.90;;;;;;5036129;28;20454;-79
2023/11/25 07:48:19;;;;;;;0.40;0.27;;;2.00;99.90;;;;;;5035706;28;20519;-79
2023/11/25 07:50:46;;;;;;;0.40;0.30;;;2.10;99.90;;;;;;5036389;28;20423;-79
2023/11/25 07:53:13;;;;;;;0.70;0.50;;;2.00;99.90;;;;;;5036158;28;20443;-78
2023/11/25 07:55:40;;;;;;;0.30;0.30;;;2.00;99.90;;;;;;5035993;28;20876;-78
2023/11/25 07:58:09;;;;;;;14.53;1.13;;;2.10;99.90;;;;;;5036858;28;20478;-78
2023/11/25 08:00:35;;;;;;;0.30;0.30;;;2.10;99.90;;;;;;5040648;28;20485;-78
2023/11/25 08:03:02;;;;;;;0.30;0.30;;;2.10;99.90;;;;;;5035436;28;20780;-78
2023/11/25 08:05:30;;;;;;;0.30;0.27;;;2.10;99.90;;;;;;5035439;28;20442;-78
2023/11/25 08:07:57;;;;;;;0.30;0.30;;;2.20;99.90;;;;;;5034623;28;20462;-78
2023/11/25 08:10:31;;;;;;;1.43;0.30;;;2.30;99.90;;;;;;5036138;28;20558;-79
2023/11/25 08:12:58;;;;;;;1.30;0.43;;;2.40;99.90;;;;;;5036941;28;20525;-79
2023/11/25 08:15:25;;;;;;;0.50;0.50;;;2.50;99.90;;;;;;5037177;28;20477;-79
2023/11/25 08:17:52;;;;;;;0.30;0.20;;;2.50;99.90;;;;;;5037453;28;20474;-79
2023/11/25 08:20:20;;;;;;;0.60;0.50;;;2.50;99.90;;;;;;5036682;28;21017;-79
2023/11/25 08:22:49;;;;;;;0.40;0.40;;;2.70;99.90;;;;;;5036681;28;20500;-79
2023/11/25 08:25:15;;;;;;;0.30;0.30;;;2.80;99.90;;;;;;5036010;28;20435;-78
2023/11/25 08:27:43;;;;;;;0.30;0.20;;;2.90;99.90;;;;;;5035512;28;20474;-79
2023/11/25 08:30:10;;;;;;;0.30;0.20;;;2.90;99.90;;;;;;5035872;28;20486;-80
2023/11/25 08:32:39;;;;;;;0.40;0.40;;;2.90;99.90;;;;;;5036751;28;20517;-79
2023/11/25 08:35:08;;;;;;;0.30;0.30;;;2.80;99.90;;;;;;5036161;28;20446;-78
2023/11/25 08:37:35;;;;;;;0.30;0.20;;;2.70;99.90;;;;;;5036010;28;20506;-79
2023/11/25 08:40:04;;;;;;;0.30;0.20;;;2.60;99.90;;;;;;5034520;28;20443;-79
2023/11/25 08:42:31;;;;;;;0.30;0.30;;;2.80;99.90;;;;;;5034360;28;20458;-78
2023/11/25 08:45:01;;;;;;;0.30;0.20;;;2.90;99.90;;;;;;5035618;28;20442;-78
2023/11/25 08:47:27;;;;;;;1.70;0.50;;;3.00;99.90;;;;;;5035056;28;21025;-79
2023/11/25 08:49:54;;;;;;;0.40;0.40;;;3.60;99.90;;;;;;5034768;28;20850;-80
2023/11/25 08:52:22;;;;;;;0.50;0.50;;;4.60;99.90;;;;;;5034853;28;20434;-79
2023/11/25 08:54:49;;;;;;;1.60;0.40;;;5.10;99.90;;;;;;5035329;28;20634;-79
2023/11/25 08:57:18;;;;;;;2.53;0.60;;;5.30;99.90;;;;;;5035549;28;20467;-80
2023/11/25 08:59:45;;;;;;;0.57;0.57;;;5.30;99.90;;;;;;5035471;28;20543;-79
2023/11/25 09:02:12;;;;;;;1.60;0.30;;;5.70;99.90;;;;;;5035088;28;20474;-79
2023/11/25 09:04:42;;;;;;;1.07;1.07;;;6.00;99.90;;;;;;5035019;28;20490;-80
2023/11/25 09:07:11;;;;;;;0.60;0.60;;;6.10;99.90;;;;;;5035085;28;20551;-79
2023/11/25 09:09:38;;;;;;;1.30;0.63;;;6.00;99.90;;;;;;5034348;28;20478;-80
2023/11/25 09:12:08;;;;;;;0.63;0.63;;;5.90;99.90;;;;;;5034569;28;20434;-79
2023/11/25 09:14:38;;;;;;;1.87;1.87;;;5.60;99.90;;;;;;5034870;28;20454;-79
2023/11/25 09:17:05;;;;;;;1.27;0.40;;;5.40;99.90;;;;;;5034798;28;20987;-79
2023/11/25 09:19:32;;;;;;;0.40;0.30;;;5.00;99.90;;;;;;5035430;28;20930;-79
2023/11/25 09:21:59;;;;;;;0.53;0.53;;;4.60;99.90;;;;;;5038791;28;20438;-79
2023/11/25 09:24:25;;;;;;;0.40;0.30;;;4.30;99.90;;;;;;5038729;28;20450;-79
2023/11/25 09:26:54;;;;;;;0.43;0.43;;;4.10;99.90;;;;;;5038777;28;20485;-79
2023/11/25 09:29:21;;;;;;;0.70;0.57;;;3.90;99.90;;;;;;5038744;28;20493;-79
2023/11/25 09:31:49;;;;;;;0.60;0.60;;;3.70;99.90;;;;;;5039401;28;20446;-79
2023/11/25 09:34:16;;;;;;;6.53;0.60;;;3.70;99.90;;;;;;5039298;28;20449;-80
2023/11/25 09:36:42;;;;;;;0.40;0.30;;;3.70;99.90;;;;;;5038698;28;20970;-79
2023/11/25 09:39:10;;;;;;;0.93;0.93;;;3.70;99.90;;;;;;5039110;28;20449;-79
2023/11/25 09:41:37;;;;;;;1.43;0.40;;;3.90;99.90;;;;;;5039638;28;20446;-80
2023/11/25 09:44:07;;;;;;;0.43;0.43;;;4.40;99.90;;;;;;5038936;28;20537;-80
2023/11/25 09:46:34;;;;;;;0.93;0.33;;;4.60;99.90;;;;;;5040301;28;20530;-79
2023/11/25 09:49:02;;;;;;;0.40;0.30;;;4.70;99.90;;;;;;5038792;28;20533;-79
2023/11/25 09:51:32;;;;;;;0.30;0.30;;;5.10;99.90;;;;;;5039008;28;20446;-80
2023/11/25 09:54:04;;;;;;;0.60;0.60;;;5.80;99.90;;;;;;5039229;28;20446;-79
2023/11/25 09:56:31;;;;;;;0.30;0.30;;;6.60;99.90;;;;;;5038634;28;20509;-79
2023/11/25 09:58:58;;;;;;;0.50;0.40;;;6.80;99.90;;;;;;5038439;28;20445;-80
2023/11/25 10:01:25;;;;;;;0.50;0.40;;;6.60;99.90;;;;;;5039541;28;20454;-81
2023/11/25 10:03:55;;;;;;;0.40;0.40;;;6.50;99.90;;;;;;5039605;28;20443;-80
2023/11/25 10:06:25;;;;;;;1.80;0.53;;;6.30;99.90;;;;;;5039932;28;20473;-79
2023/11/25 10:08:52;;;;;;;0.40;0.30;;;6.10;99.90;;;;;;5040507;28;20465;-79
2023/11/25 10:11:22;;;;;;;1.43;0.67;;;5.80;99.90;;;;;;5048386;28;20506;-80
2023/11/25 10:13:48;;;;;;;0.30;0.30;;;5.70;99.90;;;;;;5037673;28;20518;-81
2023/11/25 10:16:26;;;;;;;0.83;0.70;;;5.60;99.90;;;;;;5039483;28;20471;-79
2023/11/25 10:18:53;;;;;;;13.10;0.60;;;5.50;99.90;;;;;;5040186;28;20435;-81
2023/11/25 10:21:21;;;;;;;0.40;0.30;;;5.20;99.90;;;;;;5040269;28;20939;-80
2023/11/25 10:23:52;;;;;;;0.67;0.57;;;5.10;99.90;;;;;;5040642;28;20450;-81
2023/11/25 10:26:19;;;;;;;1.53;0.97;;;5.10;99.90;;;;;;5040814;28;21009;-80
2023/11/25 10:28:46;;;;;;;1.70;0.50;;;5.10;99.90;;;;;;5040416;28;20454;-81
2023/11/25 10:31:14;;;;;;;1.43;0.60;;;5.20;99.90;;;;;;5039779;28;20577;-81
2023/11/25 10:33:43;;;;;;;0.40;0.40;;;5.20;99.90;;;;;;5039682;28;20435;-81
2023/11/25 10:36:11;;;;;;;7.93;0.90;;;5.30;99.90;;;;;;5039882;28;20454;-80
2023/11/25 10:38:41;;;;;;;0.40;0.40;;;5.60;99.90;;;;;;5038402;28;20454;-80
2023/11/25 10:41:12;;;;;;;0.93;0.93;;;5.60;99.90;;;;;;5039147;28;20431;-80
2023/11/25 10:43:39;;;;;;;1.13;0.40;;;5.60;99.90;;;;;;5039283;28;20493;-81
2023/11/25 10:46:08;;;;;;;0.83;0.47;;;5.60;99.90;;;;;;5037897;28;20446;-82
2023/11/25 10:48:36;;;;;;;2.00;1.10;;;5.60;99.90;;;;;;5038715;28;20455;-81
2023/11/25 10:51:03;;;;;;;1.43;0.53;;;5.50;99.90;;;;;;5038969;28;20490;-81
2023/11/25 10:53:31;;;;;;;0.87;0.40;;;5.40;99.90;;;;;;5038121;28;20497;-81
2023/11/25 10:55:59;;;;;;;1.63;0.50;;;5.40;99.90;;;;;;5037459;28;20449;-80
2023/11/25 10:58:30;;;;;;;0.40;0.40;;;5.50;99.90;;;;;;5038532;28;20454;-81
2023/11/25 11:00:58;;;;;;;2.63;0.60;;;5.70;99.90;;;;;;5038332;28;20443;-81
2023/11/25 11:03:43;;;;;;;0.50;0.50;;;5.80;99.90;;;;;;5038015;28;20496;-80
2023/11/25 11:06:16;;;;;;;0.40;0.40;;;5.90;99.90;;;;;;5037566;28;20435;-81
2023/11/25 11:08:47;;;;;;;0.30;0.30;;;5.90;99.90;;;;;;5038340;28;20431;-80
2023/11/25 11:11:17;;;;;;;4.37;0.70;;;5.90;99.90;;;;;;5038124;28;20455;-81
2023/11/25 11:13:55;;;;;;;3.90;0.60;;;5.80;99.90;;;;;;5038137;28;20431;-80
2023/11/25 11:16:28;;;;;;;4.47;0.87;;;5.80;99.90;;;;;;5037396;28;20466;-81
2023/11/25 11:18:57;;;;;;;0.30;0.30;;;5.80;99.90;;;;;;5038396;28;20427;-82
2023/11/25 11:21:34;;;;;;;6.67;0.70;;;5.90;99.90;;;;;;5037078;28;20821;-81
2023/11/25 11:24:01;;;;;;;0.40;0.30;;;5.80;99.90;;;;;;5038144;28;20427;-81
2023/11/25 11:26:33;;;;;;;0.40;0.40;;;5.60;99.90;;;;;;5037865;28;20494;-80
2023/11/25 11:29:14;;;;;;;0.33;0.27;;;5.40;99.90;;;;;;5037116;28;20419;-81
2023/11/25 11:32:00;;;;;;;0.40;0.40;;;5.30;99.90;;;;;;5037486;28;20415;-80
2023/11/25 11:34:28;;;;;;;0.60;0.33;;;5.30;99.90;;;;;;5037237;28;20439;-81
2023/11/25 11:36:55;;;;;;;0.40;0.37;;;5.30;99.90;;;;;;5037283;28;20466;-80
2023/11/25 11:39:42;;;;;;;0.87;0.40;;;5.30;99.90;;;;;;5037014;28;21018;-81
2023/11/25 11:42:28;;;;;;;0.80;0.30;;;5.30;99.90;;;;;;5036470;28;20423;-82
2023/11/25 11:45:05;;;;;;;0.40;0.37;;;5.30;99.90;;;;;;5036601;28;20455;-80
2023/11/25 11:47:34;;;;;;;0.40;0.30;;;5.30;99.90;;;;;;5037241;28;20558;-79
2023/11/25 11:50:01;;;;;;;9.87;1.00;;;5.20;99.90;;;;;;5037612;28;20475;-81
2023/11/25 11:52:27;;;;;;;0.50;0.33;;;5.10;99.90;;;;;;5036648;28;20442;-80
2023/11/25 11:54:54;;;;;;;0.30;0.30;;;5.10;99.90;;;;;;5037074;28;20451;-80
2023/11/25 11:57:21;;;;;;;3.13;0.37;;;5.00;99.90;;;;;;5036092;28;20458;-81
2023/11/25 12:00:08;;;;;;;0.30;0.30;;;4.80;99.90;;;;;;5037193;28;20935;-80
2023/11/25 12:02:37;;;;;;;8.90;0.70;;;4.70;99.90;;;;;;5037142;28;20474;-81
2023/11/25 12:05:05;;;;;;;0.30;0.30;;;4.70;99.90;;;;;;5036755;28;20505;-80
2023/11/25 12:07:32;;;;;;;0.30;0.30;;;4.60;99.90;;;;;;5036794;28;20466;-80
2023/11/25 12:09:59;;;;;;;0.40;0.40;;;4.40;99.90;;;;;;5036313;28;20462;-81
2023/11/25 12:12:26;;;;;;;0.30;0.30;;;4.40;99.90;;;;;;5037894;28;20455;-80
2023/11/25 12:14:53;;;;;;;2.93;0.70;;;4.20;99.90;;;;;;5037354;28;20442;-81
2023/11/25 12:17:21;;;;;;;0.30;0.30;;;4.20;99.90;;;;;;5036693;28;20794;-79
2023/11/25 12:19:48;;;;;;;1.10;0.40;;;4.00;99.90;;;;;;5037218;28;20816;-80
2023/11/25 12:22:15;;;;;;;0.30;0.30;;;4.00;99.90;;;;;;5048084;28;20430;-80
2023/11/25 12:24:42;;;;;;;3.03;0.53;;;4.00;99.90;;;;;;5042757;28;20510;-80
2023/11/25 12:27:12;;;;;;;0.30;0.30;;;4.00;99.90;;;;;;5035820;28;20482;-79
2023/11/25 12:29:38;;;;;;;0.40;0.40;;;4.00;99.90;;;;;;5036878;28;20465;-80
2023/11/25 12:32:05;;;;;;;3.60;0.40;;;4.00;99.90;;;;;;5036438;28;20454;-79
2023/11/25 12:34:34;;;;;;;0.30;0.20;;;4.00;99.90;;;;;;5036155;28;20907;-79
2023/11/25 12:37:01;;;;;;;1.83;0.30;;;4.00;99.90;;;;;;5035836;28;20830;-79
2023/11/25 12:39:28;;;;;;;14.53;0.70;;;4.00;99.90;;;;;;5036327;28;20447;-79
2023/11/25 12:41:55;;;;;;;0.30;0.30;;;4.00;99.90;;;;;;5035235;28;20435;-80
2023/11/25 12:44:22;;;;;;;0.77;0.40;;;4.00;99.90;;;;;;5035597;28;20450;-80
2023/11/25 12:47:00;;;;;;;0.30;0.30;;;4.00;99.90;;;;;;5035374;28;20466;-79
2023/11/25 12:49:29;;;;;;;2.97;1.37;;;4.00;99.90;;;;;;5037709;28;20922;-81
2023/11/25 12:51:57;;;;;;;0.30;0.30;;;4.00;99.90;;;;;;5037245;28;20478;-81
2023/11/25 12:54:24;;;;;;;0.30;0.30;;;4.10;99.90;;;;;;5037682;28;20477;-81
2023/11/25 12:56:52;;;;;;;0.40;0.40;;;4.00;99.90;;;;;;5041025;28;20454;-82
2023/11/25 12:59:23;;;;;;;3.30;1.27;;;4.00;99.90;;;;;;5041799;28;20985;-81
2023/11/25 13:01:50;;;;;;;1.27;0.57;;;4.00;99.90;;;;;;5040815;28;20934;-81